createdAt,value
2022-12-25T00:01:32.625Z,8.50
2022-12-25T00:04:03.707Z,9.23
2022-12-25T00:06:32.872Z,8.77
2022-12-25T00:09:01.911Z,8.97
2022-12-25T00:11:31.503Z,7.93
2022-12-25T00:14:01.180Z,8.00
2022-12-25T00:16:30.160Z,7.17
2022-12-25T00:19:03.959Z,7.53
2022-12-25T00:21:34.549Z,6.50
2022-12-25T00:24:05.003Z,6.67
2022-12-25T00:26:34.185Z,6.37
2022-12-25T00:29:03.439Z,7.47
2022-12-25T00:31:32.848Z,6.87
2022-12-25T00:34:01.976Z,9.20
2022-12-25T00:36:33.691Z,8.63
2022-12-25T00:39:08.546Z,8.17
2022-12-25T00:41:55.304Z,6.37
2022-12-25T00:44:24.237Z,5.40
2022-12-25T00:46:53.126Z,4.90
2022-12-25T00:49:23.900Z,5.27
2022-12-25T00:51:53.211Z,5.47
2022-12-25T00:54:23.917Z,5.80
2022-12-25T00:56:53.177Z,4.67
2022-12-25T00:59:22.319Z,6.83
2022-12-25T01:01:51.288Z,7.13
2022-12-25T01:04:20.751Z,7.77
2022-12-25T01:06:49.987Z,8.07
2022-12-25T01:09:36.394Z,9.03
2022-12-25T01:12:07.267Z,7.33
2022-12-25T01:14:37.644Z,8.50
2022-12-25T01:17:06.592Z,7.93
2022-12-25T01:19:35.579Z,7.70
2022-12-25T01:22:04.713Z,7.33
2022-12-25T01:24:33.619Z,7.73
2022-12-25T01:27:02.473Z,6.80
2022-12-25T01:29:33.654Z,8.43
2022-12-25T01:32:02.823Z,8.43
2022-12-25T01:34:31.910Z,7.80
2022-12-25T01:37:01.431Z,7.77
2022-12-25T01:39:30.232Z,6.67
2022-12-25T01:41:59.546Z,7.20
2022-12-25T01:45:05.411Z,7.20
2022-12-25T01:47:35.703Z,6.90
2022-12-25T01:50:04.897Z,6.73
2022-12-25T01:52:34.389Z,6.83
2022-12-25T01:55:05.708Z,7.43
2022-12-25T01:57:37.702Z,6.87
2022-12-25T02:00:08.621Z,7.40
2022-12-25T02:02:40.199Z,8.03
2022-12-25T02:05:15.286Z,8.63
2022-12-25T02:07:44.597Z,8.70
2022-12-25T02:10:14.961Z,8.23
2022-12-25T02:12:46.648Z,8.90
2022-12-25T02:15:17.831Z,7.53
2022-12-25T02:17:57.988Z,7.97
2022-12-25T02:20:59.217Z,6.53
2022-12-25T02:23:56.754Z,7.27
2022-12-25T02:26:58.426Z,7.00
2022-12-25T02:29:38.291Z,7.40
2022-12-25T02:32:16.278Z,7.43
2022-12-25T02:34:51.041Z,6.63
2022-12-25T02:37:28.161Z,7.03
2022-12-25T02:40:00.978Z,6.80
2022-12-25T02:43:00.421Z,6.97
2022-12-25T02:45:53.194Z,7.57
2022-12-25T02:48:42.917Z,9.17
2022-12-25T02:51:32.568Z,7.53
2022-12-25T02:54:22.485Z,7.60
2022-12-25T02:57:11.277Z,7.70
2022-12-25T03:00:01.787Z,8.10
2022-12-25T03:02:52.156Z,8.13
2022-12-25T03:05:42.128Z,8.50
2022-12-25T03:08:15.485Z,8.80
2022-12-25T03:11:04.974Z,7.67
2022-12-25T03:13:38.504Z,8.77
2022-12-25T03:16:26.099Z,8.70
2022-12-25T03:18:58.676Z,8.33
2022-12-25T03:21:45.351Z,7.37
2022-12-25T03:24:31.802Z,8.87
2022-12-25T03:27:01.065Z,8.43
2022-12-25T03:29:50.069Z,9.50
2022-12-25T03:32:27.823Z,8.07
2022-12-25T03:35:23.825Z,7.33
2022-12-25T03:38:31.588Z,7.23
2022-12-25T03:41:29.701Z,7.30
2022-12-25T03:44:30.675Z,8.90
2022-12-25T03:47:26.453Z,9.27
2022-12-25T03:50:21.911Z,8.17
2022-12-25T03:53:10.121Z,7.90
2022-12-25T03:55:56.804Z,7.63
2022-12-25T03:58:44.705Z,6.90
2022-12-25T04:01:31.920Z,7.90
2022-12-25T04:04:18.737Z,7.50
2022-12-25T04:07:06.352Z,7.60
2022-12-25T04:09:52.946Z,7.73
2022-12-25T04:12:39.130Z,7.57
2022-12-25T04:15:25.857Z,7.83
2022-12-25T04:18:12.653Z,7.63
2022-12-25T04:20:59.095Z,8.13
2022-12-25T04:23:46.980Z,8.97
2022-12-25T04:26:33.567Z,7.60
2022-12-25T04:29:20.167Z,7.17
2022-12-25T04:32:06.449Z,8.20
2022-12-25T04:34:52.835Z,9.23
2022-12-25T04:37:21.883Z,8.77
2022-12-25T04:39:52.715Z,8.80
2022-12-25T04:42:21.776Z,7.33
2022-12-25T04:44:50.844Z,7.97
2022-12-25T04:47:20.047Z,7.60
2022-12-25T04:49:49.236Z,7.80
2022-12-25T04:52:18.338Z,6.50
2022-12-25T04:54:47.562Z,7.77
2022-12-25T04:57:17.644Z,8.00
2022-12-25T04:59:46.821Z,7.63
2022-12-25T05:02:16.093Z,7.97
2022-12-25T05:04:45.329Z,7.50
2022-12-25T05:07:14.475Z,7.87
2022-12-25T05:09:43.676Z,7.33
2022-12-25T05:12:13.051Z,7.03
2022-12-25T05:14:43.673Z,7.93
2022-12-25T05:17:13.122Z,7.80
2022-12-25T05:19:41.920Z,7.40
2022-12-25T05:22:11.040Z,7.87
2022-12-25T05:24:40.151Z,8.20
2022-12-25T05:27:09.074Z,7.77
2022-12-25T05:29:38.103Z,6.90
2022-12-25T05:32:08.817Z,7.97
2022-12-25T05:34:37.988Z,8.40
2022-12-25T05:37:07.075Z,7.30
2022-12-25T05:39:39.074Z,8.93
2022-12-25T05:42:08.383Z,7.07
2022-12-25T05:44:37.552Z,8.20
2022-12-25T05:47:06.548Z,7.90
2022-12-25T05:49:36.862Z,7.53
2022-12-25T05:52:06.474Z,8.03
2022-12-25T05:54:36.722Z,8.07
2022-12-25T05:57:06.248Z,7.20
2022-12-25T05:59:35.633Z,7.63
2022-12-25T06:02:05.217Z,7.97
2022-12-25T06:04:34.759Z,9.23
2022-12-25T06:07:08.242Z,8.43
2022-12-25T06:09:37.407Z,8.77
2022-12-25T06:12:06.880Z,7.47
2022-12-25T06:14:36.040Z,7.93
2022-12-25T06:17:05.610Z,7.43
2022-12-25T06:19:34.892Z,10.90
2022-12-25T06:22:05.423Z,9.63
2022-12-25T06:24:35.255Z,8.53
2022-12-25T06:27:04.298Z,9.40
2022-12-25T06:29:33.539Z,9.70
2022-12-25T06:32:02.626Z,9.13
2022-12-25T06:34:31.966Z,9.90
2022-12-25T06:37:01.054Z,9.30
2022-12-25T06:39:32.660Z,9.87
2022-12-25T06:42:01.998Z,10.47
2022-12-25T06:44:31.892Z,10.10
2022-12-25T06:47:01.264Z,9.87
2022-12-25T06:49:30.589Z,9.07
2022-12-25T06:51:59.776Z,8.67
2022-12-25T06:54:29.772Z,8.03
2022-12-25T06:57:00.375Z,8.40
2022-12-25T06:59:29.775Z,7.37
2022-12-25T07:01:59.363Z,7.63
2022-12-25T07:04:32.820Z,7.47
2022-12-25T07:07:08.353Z,8.23
2022-12-25T07:09:39.358Z,8.20
2022-12-25T07:12:21.591Z,7.40
2022-12-25T07:14:51.059Z,7.63
2022-12-25T07:17:20.609Z,7.40
2022-12-25T07:19:50.227Z,9.10
2022-12-25T07:22:19.723Z,8.03
2022-12-25T07:24:48.657Z,9.53
2022-12-25T07:27:19.379Z,7.77
2022-12-25T07:29:48.771Z,8.73
2022-12-25T07:32:18.105Z,8.20
2022-12-25T07:34:55.357Z,9.97
2022-12-25T07:37:25.245Z,9.73
2022-12-25T07:39:54.361Z,8.77
2022-12-25T07:42:25.481Z,9.87
2022-12-25T07:44:56.735Z,9.87
2022-12-25T07:47:26.025Z,8.87
2022-12-25T07:49:55.140Z,11.93
2022-12-25T07:52:25.093Z,9.90
2022-12-25T07:54:54.119Z,10.30
2022-12-25T07:57:24.573Z,10.83
2022-12-25T07:59:53.483Z,10.20
2022-12-25T08:02:28.589Z,13.20
2022-12-25T08:04:58.123Z,12.57
2022-12-25T08:07:27.563Z,11.90
2022-12-25T08:09:56.645Z,12.97
2022-12-25T08:12:26.695Z,12.50
2022-12-25T08:14:55.967Z,12.53
2022-12-25T08:17:25.038Z,13.03
2022-12-25T08:19:54.042Z,12.00
2022-12-25T08:22:23.382Z,13.47
2022-12-25T08:24:52.508Z,13.00
2022-12-25T08:27:21.840Z,13.17
2022-12-25T08:29:53.357Z,13.13
2022-12-25T08:32:22.424Z,13.83
2022-12-25T08:34:51.521Z,14.37
2022-12-25T08:37:20.775Z,15.10
2022-12-25T08:39:50.009Z,15.87
2022-12-25T08:42:19.224Z,15.00
2022-12-25T08:44:48.218Z,15.80
2022-12-25T08:47:18.720Z,20.20
2022-12-25T08:49:47.645Z,17.97
2022-12-25T08:52:17.013Z,13.17
2022-12-25T08:54:46.019Z,10.50
2022-12-25T08:57:15.101Z,10.03
2022-12-25T08:59:43.922Z,12.17
2022-12-25T09:02:14.281Z,16.83
2022-12-25T09:04:46.923Z,12.80
2022-12-25T09:07:15.903Z,11.07
2022-12-25T09:09:45.056Z,9.43
2022-12-25T09:12:13.972Z,10.17
2022-12-25T09:14:43.061Z,9.27
2022-12-25T09:17:12.020Z,8.37
2022-12-25T09:19:40.704Z,7.53
2022-12-25T09:22:10.876Z,7.80
2022-12-25T09:24:40.171Z,7.40
2022-12-25T09:27:09.259Z,8.63
2022-12-25T09:29:39.267Z,9.63
2022-12-25T09:32:08.626Z,9.45
2022-12-25T09:34:37.475Z,7.72
2022-12-25T09:37:06.569Z,7.22
2022-12-25T09:39:42.157Z,8.90
2022-12-25T09:42:19.362Z,7.88
2022-12-25T09:44:51.434Z,10.05
2022-12-25T09:47:24.473Z,7.90
2022-12-25T09:49:57.832Z,9.10
2022-12-25T09:52:35.928Z,8.68
2022-12-25T09:55:19.575Z,7.65
2022-12-25T09:57:52.870Z,6.80
2022-12-25T10:00:24.343Z,6.95
2022-12-25T10:03:07.911Z,6.40
2022-12-25T10:06:01.360Z,6.15
2022-12-25T10:08:44.721Z,6.63
2022-12-25T10:11:28.503Z,6.82
2022-12-25T10:14:09.710Z,9.27
2022-12-25T10:16:47.801Z,8.02
2022-12-25T10:19:36.518Z,7.13
2022-12-25T10:22:12.605Z,7.45
2022-12-25T10:24:47.125Z,6.20
2022-12-25T10:27:22.389Z,6.43
2022-12-25T10:29:55.465Z,6.63
2022-12-25T10:32:24.811Z,6.28
2022-12-25T10:34:53.550Z,5.68
2022-12-25T10:37:22.400Z,7.20
2022-12-25T10:39:51.292Z,6.70
2022-12-25T10:42:32.406Z,7.68
2022-12-25T10:45:03.490Z,6.13
2022-12-25T10:47:38.617Z,7.03
2022-12-25T10:50:12.037Z,7.45
2022-12-25T10:52:56.872Z,7.25
2022-12-25T10:55:29.269Z,6.97
2022-12-25T10:58:02.433Z,5.72
2022-12-25T11:00:33.941Z,5.47
2022-12-25T11:03:03.061Z,5.85
2022-12-25T11:05:34.021Z,5.32
2022-12-25T11:08:04.963Z,5.15
2022-12-25T11:10:36.727Z,5.00
2022-12-25T11:13:09.172Z,4.85
2022-12-25T11:15:40.534Z,5.28
2022-12-25T11:18:21.410Z,5.32
2022-12-25T11:20:51.546Z,5.15
2022-12-25T11:23:23.328Z,5.25
2022-12-25T11:26:00.446Z,5.82
2022-12-25T11:28:32.774Z,5.47
2022-12-25T11:31:07.437Z,4.80
2022-12-25T11:33:40.541Z,5.43
2022-12-25T11:36:17.227Z,4.70
2022-12-25T11:38:46.174Z,5.18
2022-12-25T11:41:15.787Z,6.05
2022-12-25T11:43:50.765Z,5.15
2022-12-25T11:46:24.527Z,4.60
2022-12-25T11:48:58.398Z,4.55
2022-12-25T11:51:30.948Z,4.40
2022-12-25T11:54:05.770Z,4.40
2022-12-25T11:56:34.554Z,4.68
2022-12-25T11:59:14.952Z,4.88
2022-12-25T12:01:51.278Z,4.55
2022-12-25T12:04:29.221Z,5.13
2022-12-25T12:07:06.077Z,4.30
2022-12-25T12:09:44.594Z,3.85
2022-12-25T12:12:25.383Z,4.70
2022-12-25T12:15:02.821Z,4.75
2022-12-25T12:17:31.944Z,4.57
2022-12-25T12:20:11.503Z,4.53
2022-12-25T12:22:40.580Z,4.55
2022-12-25T12:25:09.862Z,4.60
2022-12-25T12:27:41.047Z,4.88
2022-12-25T12:30:25.711Z,4.50
2022-12-25T12:32:59.467Z,4.97
2022-12-25T12:35:31.210Z,4.55
2022-12-25T12:38:08.048Z,5.20
2022-12-25T12:40:41.041Z,5.38
2022-12-25T12:43:29.070Z,5.68
2022-12-25T12:46:05.840Z,5.63
2022-12-25T12:48:44.766Z,6.70
2022-12-25T12:51:15.652Z,7.03
2022-12-25T12:53:45.089Z,5.90
2022-12-25T12:56:18.529Z,5.38
2022-12-25T12:58:51.297Z,4.32
2022-12-25T13:01:37.999Z,4.88
2022-12-25T13:04:42.499Z,4.78
2022-12-25T13:07:34.077Z,5.05
2022-12-25T13:10:15.220Z,4.22
2022-12-25T13:12:45.404Z,3.72
2022-12-25T13:15:16.522Z,3.83
2022-12-25T13:17:48.290Z,3.50
2022-12-25T13:20:25.399Z,4.10
2022-12-25T13:22:54.445Z,4.05
2022-12-25T13:25:25.281Z,3.83
2022-12-25T13:27:59.802Z,4.17
2022-12-25T13:30:29.599Z,4.13
2022-12-25T13:33:00.435Z,4.10
2022-12-25T13:35:29.775Z,4.40
2022-12-25T13:37:59.316Z,4.13
2022-12-25T13:40:29.652Z,3.97
2022-12-25T13:43:01.075Z,4.50
2022-12-25T13:45:34.221Z,4.47
2022-12-25T13:48:17.021Z,5.10
2022-12-25T13:50:48.721Z,5.27
2022-12-25T13:53:18.912Z,5.10
2022-12-25T13:55:55.012Z,5.03
2022-12-25T13:58:28.231Z,5.03
2022-12-25T14:00:59.547Z,4.97
2022-12-25T14:03:37.164Z,5.17
2022-12-25T14:06:18.190Z,6.03
2022-12-25T14:08:47.326Z,6.13
2022-12-25T14:11:18.968Z,5.30
2022-12-25T14:13:49.943Z,6.00
2022-12-25T14:16:20.071Z,5.53
2022-12-25T14:18:55.375Z,5.43
2022-12-25T14:21:29.152Z,6.37
2022-12-25T14:23:59.825Z,5.70
2022-12-25T14:26:31.966Z,6.17
2022-12-25T14:29:16.890Z,5.60
2022-12-25T14:31:47.713Z,5.73
2022-12-25T14:34:21.668Z,6.73
2022-12-25T14:36:52.320Z,6.40
2022-12-25T14:39:33.690Z,6.80
2022-12-25T14:42:11.849Z,6.93
2022-12-25T14:44:43.949Z,7.30
2022-12-25T14:47:19.220Z,14.80
2022-12-25T14:49:50.145Z,9.77
2022-12-25T14:52:23.638Z,9.67
2022-12-25T14:54:55.869Z,10.40
2022-12-25T14:57:31.119Z,20.03
2022-12-25T15:00:04.233Z,15.43
2022-12-25T15:02:42.209Z,13.83
2022-12-25T15:05:41.968Z,14.67
2022-12-25T15:08:26.202Z,13.43
2022-12-25T15:11:00.596Z,13.27
2022-12-25T15:13:34.436Z,10.87
2022-12-25T15:16:08.247Z,9.27
2022-12-25T15:18:41.373Z,10.67
2022-12-25T15:21:18.719Z,12.83
2022-12-25T15:23:47.974Z,15.20
2022-12-25T15:26:17.150Z,10.97
2022-12-25T15:28:46.307Z,10.80
2022-12-25T15:31:26.445Z,11.47
2022-12-25T15:33:56.559Z,11.43
2022-12-25T15:36:28.097Z,11.90
2022-12-25T15:38:57.986Z,11.10
2022-12-25T15:41:46.697Z,13.90
2022-12-25T15:44:16.033Z,14.10
2022-12-25T15:46:46.437Z,13.00
2022-12-25T15:49:16.539Z,13.03
2022-12-25T15:51:48.323Z,12.03
2022-12-25T15:54:17.622Z,12.07
2022-12-25T15:56:49.731Z,11.67
2022-12-25T15:59:20.373Z,13.37
2022-12-25T16:01:51.589Z,13.30
2022-12-25T16:04:21.425Z,13.20
2022-12-25T16:06:52.786Z,12.53
2022-12-25T16:09:21.988Z,12.73
2022-12-25T16:11:51.620Z,12.83
2022-12-25T16:14:21.823Z,12.90
2022-12-25T16:16:51.090Z,13.23
2022-12-25T16:19:20.373Z,14.50
2022-12-25T16:21:49.539Z,14.40
2022-12-25T16:24:20.189Z,14.47
2022-12-25T16:26:49.833Z,14.30
2022-12-25T16:29:19.253Z,13.40
2022-12-25T16:31:48.627Z,15.20
2022-12-25T16:34:17.488Z,14.43
2022-12-25T16:36:46.661Z,15.67
2022-12-25T16:39:15.821Z,14.73
2022-12-25T16:41:46.891Z,15.40
2022-12-25T16:44:15.943Z,14.90
2022-12-25T16:46:45.050Z,14.10
2022-12-25T16:49:16.287Z,15.40
2022-12-25T16:51:45.692Z,15.73
2022-12-25T16:54:14.845Z,15.73
2022-12-25T16:56:43.970Z,17.83
2022-12-25T16:59:14.593Z,18.07
2022-12-25T17:01:44.380Z,17.50
2022-12-25T17:04:13.758Z,18.07
2022-12-25T17:06:43.774Z,18.93
2022-12-25T17:09:13.722Z,19.80
2022-12-25T17:11:42.923Z,20.07
2022-12-25T17:14:15.127Z,18.97
2022-12-25T17:16:46.545Z,19.00
2022-12-25T17:19:19.619Z,17.20
2022-12-25T17:21:49.027Z,17.37
2022-12-25T17:24:18.237Z,18.00
2022-12-25T17:26:47.350Z,18.77
2022-12-25T17:29:22.092Z,19.60
2022-12-25T17:31:52.844Z,19.87
2022-12-25T17:34:22.476Z,20.43
2022-12-25T17:36:51.630Z,20.70
2022-12-25T17:39:21.124Z,24.83
2022-12-25T17:41:52.339Z,22.20
2022-12-25T17:44:23.799Z,28.43
2022-12-25T17:46:53.245Z,30.70
2022-12-25T17:49:23.606Z,27.00
2022-12-25T17:51:53.103Z,27.77
2022-12-25T17:54:22.294Z,26.23
2022-12-25T17:56:51.589Z,22.90
2022-12-25T17:59:23.284Z,22.77
2022-12-25T18:01:53.795Z,22.97
2022-12-25T18:04:23.143Z,22.90
2022-12-25T18:06:52.516Z,20.97
2022-12-25T18:09:22.312Z,22.97
2022-12-25T18:11:51.790Z,23.13
2022-12-25T18:14:21.243Z,25.13
2022-12-25T18:16:50.407Z,25.47
2022-12-25T18:19:21.471Z,26.30
2022-12-25T18:21:52.817Z,23.37
2022-12-25T18:24:22.103Z,23.23
2022-12-25T18:26:51.184Z,23.23
2022-12-25T18:29:20.901Z,22.43
2022-12-25T18:31:49.963Z,21.73
2022-12-25T18:34:19.083Z,23.20
2022-12-25T18:36:49.377Z,22.13
2022-12-25T18:39:19.131Z,24.40
2022-12-25T18:42:07.598Z,23.80
2022-12-25T18:44:36.999Z,24.00
2022-12-25T18:47:06.095Z,23.73
2022-12-25T18:49:35.463Z,23.00
2022-12-25T18:52:48.335Z,25.83
2022-12-25T18:54:57.607Z,24.93
2022-12-25T18:57:26.690Z,24.77
2022-12-25T18:59:59.101Z,23.73
2022-12-25T19:02:28.703Z,23.20
2022-12-25T19:04:58.473Z,23.30
2022-12-25T19:07:29.057Z,22.77
2022-12-25T19:09:58.387Z,22.23
2022-12-25T19:12:27.660Z,22.03
2022-12-25T19:14:58.691Z,20.87
2022-12-25T19:20:15.911Z,21.27
2022-12-25T19:22:47.341Z,18.90
2022-12-25T19:25:18.679Z,21.43
2022-12-25T19:27:47.875Z,22.03
2022-12-25T19:30:18.587Z,22.17
2022-12-25T19:32:47.550Z,18.50
2022-12-25T19:35:16.836Z,21.00
2022-12-25T19:37:47.567Z,21.33
2022-12-25T19:40:16.696Z,21.73
2022-12-25T19:42:46.953Z,22.03
2022-12-25T19:45:16.403Z,21.43
2022-12-25T19:47:45.796Z,21.30
2022-12-25T19:50:15.072Z,20.60
2022-12-25T19:52:45.968Z,20.60
2022-12-25T19:55:16.942Z,19.33
2022-12-25T19:57:48.592Z,19.70
2022-12-25T20:00:18.317Z,21.20
2022-12-25T20:02:47.761Z,18.27
2022-12-25T20:05:17.186Z,17.30
2022-12-25T20:07:46.543Z,17.03
2022-12-25T20:10:17.489Z,17.53
2022-12-25T20:12:46.664Z,18.10
2022-12-25T20:15:15.700Z,17.53
2022-12-25T20:17:44.759Z,13.93
2022-12-25T20:20:14.713Z,16.03
2022-12-25T20:22:43.907Z,15.23
2022-12-25T20:25:14.285Z,15.83
2022-12-25T20:27:45.201Z,15.73
2022-12-25T20:30:16.079Z,13.77
2022-12-25T20:32:58.340Z,14.53
2022-12-25T20:35:33.342Z,14.97
2022-12-25T20:38:03.040Z,15.07
2022-12-25T20:40:46.771Z,14.57
2022-12-25T20:43:23.526Z,14.47
2022-12-25T20:45:54.513Z,14.80
2022-12-25T20:48:25.930Z,13.23
2022-12-25T20:50:56.842Z,12.47
2022-12-25T20:53:26.647Z,12.17
2022-12-25T20:55:56.976Z,11.37
2022-12-25T20:58:29.774Z,12.27
2022-12-25T21:01:00.237Z,11.03
2022-12-25T21:03:30.857Z,11.50
2022-12-25T21:06:00.210Z,11.77
2022-12-25T21:08:30.081Z,12.13
2022-12-25T21:11:06.525Z,12.93
2022-12-25T21:13:42.952Z,12.90
2022-12-25T21:16:27.700Z,12.23
2022-12-25T21:18:57.349Z,13.03
2022-12-25T21:21:27.361Z,13.73
2022-12-25T21:23:58.933Z,13.87
2022-12-25T21:26:33.286Z,13.97
2022-12-25T21:29:04.897Z,13.83
2022-12-25T21:31:59.924Z,13.30
2022-12-25T21:34:31.177Z,12.70
2022-12-25T21:37:00.833Z,12.33
2022-12-25T21:39:31.437Z,12.50
2022-12-25T21:42:04.792Z,12.03
2022-12-25T21:44:37.627Z,12.30
2022-12-25T21:47:07.305Z,11.77
2022-12-25T21:49:56.542Z,10.93
2022-12-25T21:52:29.205Z,12.07
2022-12-25T21:54:58.573Z,11.87
2022-12-25T21:57:31.133Z,11.20
2022-12-25T22:00:01.781Z,11.70
2022-12-25T22:02:30.845Z,12.23
2022-12-25T22:05:00.131Z,11.00
2022-12-25T22:07:27.958Z,10.17
2022-12-25T22:09:56.997Z,10.83
2022-12-25T22:12:43.146Z,10.80
2022-12-25T22:15:14.702Z,11.53
2022-12-25T22:18:02.679Z,10.53
2022-12-25T22:20:34.973Z,11.10
2022-12-25T22:23:04.488Z,9.50
2022-12-25T22:25:33.749Z,9.60
2022-12-25T22:28:03.032Z,10.63
2022-12-25T22:30:33.465Z,11.30
2022-12-25T22:33:03.644Z,10.83
2022-12-25T22:35:32.921Z,12.20
2022-12-25T22:38:02.185Z,11.73
2022-12-25T22:40:31.438Z,11.93
2022-12-25T22:43:00.643Z,11.57
2022-12-25T22:45:29.897Z,11.70
2022-12-25T22:48:00.598Z,12.13
2022-12-25T22:50:29.833Z,12.07
2022-12-25T22:52:58.920Z,11.83
2022-12-25T22:55:28.025Z,11.93
2022-12-25T22:57:57.380Z,12.13
2022-12-25T23:00:26.660Z,13.43
2022-12-25T23:02:56.158Z,12.67
2022-12-25T23:05:27.157Z,13.60
2022-12-25T23:07:56.551Z,13.03
2022-12-25T23:10:26.018Z,13.20
2022-12-25T23:13:12.668Z,13.30
2022-12-25T23:15:41.859Z,12.63
2022-12-25T23:18:28.685Z,13.10
2022-12-25T23:21:19.703Z,12.90
2022-12-25T23:24:05.805Z,12.37
2022-12-25T23:26:34.884Z,11.67
2022-12-25T23:29:21.245Z,11.27
2022-12-25T23:31:53.963Z,12.37
2022-12-25T23:34:23.187Z,11.83
2022-12-25T23:36:54.560Z,12.17
2022-12-25T23:39:24.191Z,13.23
2022-12-25T23:41:53.566Z,12.60
2022-12-25T23:44:23.026Z,12.80
2022-12-25T23:46:53.543Z,12.57
2022-12-25T23:49:23.364Z,11.80
2022-12-25T23:51:53.807Z,13.03
2022-12-25T23:54:24.960Z,13.60
2022-12-25T23:56:54.300Z,12.57
2022-12-25T23:59:23.358Z,13.57
